Boise, ID (83726)

8:09 AM MST on November 26, 2014 (GMT -0700)
ITD Highland Valley Summit ID US | Change Station
CLOSE
Current Station
Personal Weather Station
Location: Boise, ID
Elevation: 3777 ft
Nearby Weather Stations

Elev 3777 ft 43.57 °N, 116.03 °W | Updated 54 minutes ago

Partly Cloudy
Partly Cloudy
41 °F
Feels Like 38 °F
N
4
Wind Variable Wind from North
Gusts 5.0 mph

Today
High -- | Low -- °F
--% Chance of Precip.
Yesterday
High -- | Low -- °F
Precip. -- in
7:51 AM 5:11 PM
Waxing Crescent, 20% visible
Pressure 30.33 in
Visibility 10.0 miles
Clouds Clear
Windchill 38 °F
Dew Point 39 °F
Humidity 93%
Rainfall 0.17 in
Snow Depth Not available.
UV 0 out of 12
Pollen .50 out of 12
Air Quality Not available.
Flu Activity Not available.
METAR KBOI 261453Z 14004KT 10SM CLR 03/02 A3032 RMK AO2 SLP271 T00330017 51005

More Conditions Fewer Conditions

Pressure 30.33 in
Visibility 10.0 miles
Clouds Clear
Windchill 38 °F
Dew Point 39 °F
Humidity 93%
Rainfall 0.17 in
Snow Depth Not available.
UV 0 out of 12
Pollen .50 out of 12
Air Quality Not available.
Flu Activity Not available.
METAR KBOI 261453Z 14004KT 10SM CLR 03/02 A3032 RMK AO2 SLP271 T00330017 51005

More Conditions Fewer Conditions

10-Day Weather Forecast

Almanac

Astronomy

Nov. 26, 2014 Rise Set
Actual Time
Civil Twilight
Nautical Twilight
Astronomical Twilight
Moon
Length of Visible Light
Length of Day
Tomorrow will be .
, % of the Moon is Illuminated

Today's Extremes

State Highs State Lows

Community

WunderPhotos

Upload Photos

1,773,769 photos uploaded!

WunderBlogs® & News

Nearby

Air Quality

  Air Quality AQ Index Pollutant
Not available.

Snow Depth

Station Depth Elevation

Earthquake Activity

City Distance Mag. Time & Date
Minimum magnitude displayed is 2.5.

Coastal Water Temperatures

Place Temperature

Nearby Weather Stations